createdAt,value
2018-09-17T00:01:32.553Z,66.55
2018-09-17T00:04:00.750Z,66.40
2018-09-17T00:06:28.998Z,67.36
2018-09-17T00:08:57.214Z,66.21
2018-09-17T00:11:25.437Z,66.10
2018-09-17T00:13:53.654Z,66.82
2018-09-17T00:16:21.858Z,66.20
2018-09-17T00:18:50.073Z,65.67
2018-09-17T00:21:18.273Z,65.15
2018-09-17T00:23:46.499Z,65.48
2018-09-17T00:26:14.821Z,65.65
2018-09-17T00:28:43.053Z,65.88
2018-09-17T00:31:11.261Z,65.24
2018-09-17T00:33:39.474Z,65.93
2018-09-17T00:36:07.684Z,65.99
2018-09-17T00:38:36.032Z,66.97
2018-09-17T00:41:04.273Z,66.58
2018-09-17T00:43:32.495Z,66.55
2018-09-17T00:46:00.721Z,65.83
2018-09-17T00:48:28.935Z,66.12
2018-09-17T00:50:57.398Z,66.33
2018-09-17T00:53:25.606Z,66.49
2018-09-17T00:55:53.818Z,67.09
2018-09-17T00:58:22.034Z,67.91
2018-09-17T01:00:50.458Z,67.53
2018-09-17T01:03:18.708Z,66.82
2018-09-17T01:05:46.942Z,69.51
2018-09-17T01:08:15.146Z,68.21
2018-09-17T01:10:43.394Z,68.24
2018-09-17T01:13:11.627Z,67.39
2018-09-17T01:15:39.849Z,69.06
2018-09-17T01:18:08.075Z,68.56
2018-09-17T01:20:36.337Z,68.62
2018-09-17T01:23:04.547Z,67.74
2018-09-17T01:25:32.787Z,69.14
2018-09-17T01:28:01.018Z,69.46
2018-09-17T01:30:29.248Z,70.23
2018-09-17T01:32:57.441Z,68.93
2018-09-17T01:35:25.640Z,69.43
2018-09-17T01:37:53.882Z,69.82
2018-09-17T01:40:22.077Z,69.67
2018-09-17T01:42:50.281Z,69.98
2018-09-17T01:45:18.514Z,69.13
2018-09-17T01:47:46.725Z,68.47
2018-09-17T01:50:14.938Z,68.99
2018-09-17T01:52:43.148Z,69.46
2018-09-17T01:55:11.400Z,69.68
2018-09-17T01:57:39.610Z,70.82
2018-09-17T02:00:07.853Z,70.73
2018-09-17T02:02:36.061Z,70.76
2018-09-17T02:05:04.305Z,70.95
2018-09-17T02:07:32.514Z,70.92
2018-09-17T02:10:00.813Z,71.09
2018-09-17T02:12:28.957Z,70.86
2018-09-17T02:14:57.179Z,70.26
2018-09-17T02:17:25.430Z,71.41
2018-09-17T02:19:53.702Z,70.53
2018-09-17T02:22:21.927Z,71.31
2018-09-17T02:24:50.166Z,71.72
2018-09-17T02:27:18.402Z,71.82
2018-09-17T02:29:46.633Z,72.26
2018-09-17T02:32:14.833Z,72.32
2018-09-17T02:34:43.061Z,72.62
2018-09-17T02:37:11.274Z,73.54
2018-09-17T02:39:39.535Z,73.24
2018-09-17T02:42:08.066Z,73.34
2018-09-17T02:44:36.558Z,72.83
2018-09-17T02:47:05.110Z,74.42
2018-09-17T02:49:33.337Z,73.38
2018-09-17T02:52:01.554Z,73.60
2018-09-17T02:54:29.759Z,73.22
2018-09-17T02:56:57.973Z,74.48
2018-09-17T02:59:26.214Z,74.45
2018-09-17T03:01:54.422Z,74.98
2018-09-17T03:04:22.634Z,74.89
2018-09-17T03:06:50.850Z,74.50
2018-09-17T03:09:19.091Z,74.85
2018-09-17T03:11:47.738Z,73.94
2018-09-17T03:14:16.009Z,74.11
2018-09-17T03:16:55.586Z,74.35
2018-09-17T03:19:23.869Z,73.31
2018-09-17T03:21:52.094Z,73.85
2018-09-17T03:24:20.332Z,75.42
2018-09-17T03:26:48.593Z,76.06
2018-09-17T03:29:16.819Z,76.51
2018-09-17T03:31:45.027Z,76.17
2018-09-17T03:34:13.310Z,75.82
2018-09-17T03:36:41.523Z,76.03
2018-09-17T03:39:09.725Z,76.38
2018-09-17T03:41:37.949Z,76.73
2018-09-17T03:44:06.189Z,76.14
2018-09-17T03:46:34.406Z,75.86
2018-09-17T03:49:02.613Z,75.87
2018-09-17T03:51:30.845Z,75.84
2018-09-17T03:53:59.053Z,75.79
2018-09-17T03:56:27.267Z,76.74
2018-09-17T03:58:55.469Z,76.36
2018-09-17T04:01:23.681Z,77.93
2018-09-17T04:03:51.921Z,76.77
2018-09-17T04:06:20.141Z,76.10
2018-09-17T04:08:48.369Z,76.28
2018-09-17T04:11:16.577Z,77.01
2018-09-17T04:13:44.810Z,76.29
2018-09-17T04:16:13.060Z,75.45
2018-09-17T04:18:41.266Z,75.83
2018-09-17T04:21:09.542Z,75.19
2018-09-17T04:23:38.554Z,75.70
2018-09-17T04:26:09.201Z,75.82
2018-09-17T04:28:37.941Z,75.61
2018-09-17T04:31:06.297Z,76.02
2018-09-17T04:33:36.541Z,75.42
2018-09-17T04:36:04.805Z,75.45
2018-09-17T04:38:33.079Z,75.93
2018-09-17T04:41:01.293Z,75.43
2018-09-17T04:43:29.556Z,76.98
2018-09-17T04:45:57.773Z,76.29
2018-09-17T04:48:26.017Z,75.85
2018-09-17T04:50:54.221Z,76.59
2018-09-17T04:53:22.473Z,77.13
2018-09-17T04:55:50.713Z,77.01
2018-09-17T04:58:18.949Z,76.93
2018-09-17T05:00:47.179Z,75.95
2018-09-17T05:03:15.433Z,76.06
2018-09-17T05:05:43.654Z,76.98
2018-09-17T05:08:11.874Z,77.00
2018-09-17T05:10:40.138Z,76.61
2018-09-17T05:13:08.405Z,76.89
2018-09-17T05:15:36.589Z,76.55
2018-09-17T05:18:04.813Z,76.34
2018-09-17T05:20:33.071Z,77.47
2018-09-17T05:23:01.283Z,76.31
2018-09-17T05:25:29.622Z,77.02
2018-09-17T05:27:57.862Z,77.79
2018-09-17T05:30:26.078Z,77.00
2018-09-17T05:32:54.311Z,78.08
2018-09-17T05:35:22.525Z,77.82
2018-09-17T05:37:50.806Z,78.36
2018-09-17T05:40:19.118Z,78.95
2018-09-17T05:42:47.396Z,79.17
2018-09-17T05:45:15.623Z,79.26
2018-09-17T05:47:43.832Z,79.83
2018-09-17T05:50:12.071Z,79.33
2018-09-17T05:52:40.268Z,77.67
2018-09-17T05:55:08.529Z,77.38
2018-09-17T05:57:36.741Z,78.64
2018-09-17T06:00:06.311Z,78.23
2018-09-17T06:02:34.531Z,77.78
2018-09-17T06:05:02.798Z,78.00
2018-09-17T06:07:31.045Z,77.66
2018-09-17T06:09:59.314Z,77.75
2018-09-17T06:12:27.529Z,77.14
2018-09-17T06:14:55.766Z,77.47
2018-09-17T06:17:24.026Z,76.35
2018-09-17T06:19:52.197Z,76.30
2018-09-17T06:22:20.410Z,76.20
2018-09-17T06:24:48.638Z,76.75
2018-09-17T06:27:16.845Z,76.39
2018-09-17T06:29:45.078Z,76.88
2018-09-17T06:32:13.315Z,77.03
2018-09-17T06:34:41.523Z,77.26
2018-09-17T06:37:09.758Z,76.43
2018-09-17T06:39:37.965Z,76.02
2018-09-17T06:42:06.192Z,77.28
2018-09-17T06:44:34.408Z,75.87
2018-09-17T06:47:02.633Z,75.06
2018-09-17T06:49:30.858Z,74.48
2018-09-17T06:51:59.086Z,73.62
2018-09-17T06:54:27.303Z,72.31
2018-09-17T06:56:55.556Z,72.05
2018-09-17T06:59:23.754Z,72.50
2018-09-17T07:01:51.998Z,71.01
2018-09-17T07:04:20.228Z,69.73
2018-09-17T07:06:48.477Z,69.68
2018-09-17T07:09:16.689Z,68.03
2018-09-17T07:11:44.941Z,67.48
2018-09-17T07:14:13.261Z,67.79
2018-09-17T07:16:41.503Z,66.48
2018-09-17T07:19:09.740Z,65.38
2018-09-17T07:21:37.939Z,66.06
2018-09-17T07:24:06.316Z,65.40
2018-09-17T07:26:35.613Z,64.31
2018-09-17T07:29:03.977Z,63.51
2018-09-17T07:31:32.199Z,61.09
2018-09-17T07:34:01.470Z,60.04
2018-09-17T07:36:29.887Z,60.67
2018-09-17T07:38:58.035Z,60.84
2018-09-17T07:41:26.336Z,60.24
2018-09-17T07:43:54.560Z,59.89
2018-09-17T07:46:23.870Z,54.01
2018-09-17T07:48:52.082Z,56.34
2018-09-17T07:51:21.344Z,54.90
2018-09-17T07:53:49.646Z,54.67
2018-09-17T07:56:17.894Z,53.69
2018-09-17T07:58:46.228Z,51.80
2018-09-17T08:01:14.405Z,53.66
2018-09-17T08:03:42.639Z,52.92
2018-09-17T08:06:11.657Z,51.21
2018-09-17T08:08:39.869Z,50.61
2018-09-17T08:11:08.107Z,53.89
2018-09-17T08:13:36.414Z,47.16
2018-09-17T08:16:04.666Z,51.28
2018-09-17T08:18:32.904Z,50.64
2018-09-17T08:21:01.133Z,51.81
2018-09-17T08:23:30.071Z,49.00
2018-09-17T08:25:58.283Z,50.11
2018-09-17T08:28:26.498Z,48.22
2018-09-17T08:30:54.779Z,49.16
2018-09-17T08:33:22.994Z,48.47
2018-09-17T08:35:51.275Z,50.87
2018-09-17T08:38:19.502Z,48.00
2018-09-17T08:40:47.771Z,46.91
2018-09-17T08:43:17.020Z,48.25
2018-09-17T08:45:46.266Z,48.60
2018-09-17T08:48:14.482Z,46.54
2018-09-17T08:50:42.717Z,46.42
2018-09-17T08:53:11.024Z,44.96
2018-09-17T08:55:45.108Z,43.26
2018-09-17T08:58:18.742Z,43.32
2018-09-17T09:00:52.126Z,45.17
2018-09-17T09:03:25.613Z,43.66
2018-09-17T09:05:59.231Z,44.48
2018-09-17T09:08:27.447Z,46.70
2018-09-17T09:11:00.873Z,45.84
2018-09-17T09:13:49.677Z,45.04
2018-09-17T09:16:17.951Z,44.29
2018-09-17T09:18:46.181Z,44.51
2018-09-17T09:21:14.394Z,44.88
2018-09-17T09:23:42.709Z,45.28
2018-09-17T09:26:10.965Z,44.62
2018-09-17T09:28:39.190Z,45.10
2018-09-17T09:31:07.450Z,44.33
2018-09-17T09:33:35.678Z,43.92
2018-09-17T09:36:03.932Z,44.00
2018-09-17T09:38:32.188Z,42.32
2018-09-17T09:41:00.390Z,43.81
2018-09-17T09:43:28.757Z,41.89
2018-09-17T09:45:56.989Z,42.07
2018-09-17T09:48:25.206Z,42.43
2018-09-17T09:50:53.462Z,40.47
2018-09-17T09:53:21.667Z,41.24
2018-09-17T09:55:49.903Z,40.54
2018-09-17T09:58:18.139Z,41.20
2018-09-17T10:00:51.754Z,41.53
2018-09-17T10:03:26.885Z,41.96
2018-09-17T10:05:55.146Z,40.76
2018-09-17T10:08:23.421Z,40.50
2018-09-17T10:10:57.046Z,41.36
2018-09-17T10:13:30.553Z,40.32
2018-09-17T10:15:58.911Z,40.60
2018-09-17T10:18:32.493Z,38.12
2018-09-17T10:21:00.709Z,39.03
2018-09-17T10:23:29.002Z,39.64
2018-09-17T10:25:57.221Z,39.42
2018-09-17T10:28:25.439Z,38.43
2018-09-17T10:30:53.781Z,38.49
2018-09-17T10:33:23.081Z,39.07
2018-09-17T10:35:51.343Z,37.82
2018-09-17T10:38:19.581Z,37.73
2018-09-17T10:40:47.818Z,37.56
2018-09-17T10:43:16.135Z,37.38
2018-09-17T10:45:45.450Z,36.92
2018-09-17T10:48:13.732Z,36.95
2018-09-17T10:50:41.973Z,37.27
2018-09-17T10:53:10.214Z,37.27
2018-09-17T10:55:38.457Z,38.32
2018-09-17T10:58:06.845Z,37.58
2018-09-17T11:00:35.065Z,38.40
2018-09-17T11:03:03.387Z,38.14
2018-09-17T11:05:31.672Z,38.06
2018-09-17T11:08:00.951Z,38.08
2018-09-17T11:10:29.275Z,37.66
2018-09-17T11:12:57.514Z,37.59
2018-09-17T11:15:30.834Z,36.15
2018-09-17T11:17:59.053Z,37.35
2018-09-17T11:20:27.386Z,37.36
2018-09-17T11:22:55.623Z,36.39
2018-09-17T11:25:23.850Z,36.15
2018-09-17T11:27:52.089Z,35.97
2018-09-17T11:30:20.398Z,36.22
2018-09-17T11:32:49.334Z,35.56
2018-09-17T11:35:17.565Z,35.42
2018-09-17T11:37:46.077Z,36.27
2018-09-17T11:40:14.325Z,35.00
2018-09-17T11:42:42.624Z,35.28
2018-09-17T11:45:10.863Z,35.62
2018-09-17T11:47:39.115Z,35.09
2018-09-17T11:50:07.388Z,35.18
2018-09-17T11:52:35.677Z,36.21
2018-09-17T11:55:04.282Z,35.24
2018-09-17T11:57:32.515Z,34.49
2018-09-17T12:00:00.819Z,35.28
2018-09-17T12:02:33.744Z,34.61
2018-09-17T12:05:08.805Z,35.08
2018-09-17T12:07:41.944Z,34.13
2018-09-17T12:10:10.972Z,34.21
2018-09-17T12:12:39.666Z,34.42
2018-09-17T12:15:08.417Z,34.29
2018-09-17T12:17:36.971Z,34.00
2018-09-17T12:20:05.331Z,34.06
2018-09-17T12:22:33.545Z,34.13
2018-09-17T12:25:01.767Z,34.56
2018-09-17T12:27:29.999Z,33.95
2018-09-17T12:29:58.230Z,33.19
2018-09-17T12:32:26.459Z,32.24
2018-09-17T12:34:54.766Z,32.19
2018-09-17T12:37:22.993Z,33.02
2018-09-17T12:39:51.227Z,31.13
2018-09-17T12:42:19.462Z,31.64
2018-09-17T12:44:47.678Z,31.54
2018-09-17T12:47:15.918Z,31.48
2018-09-17T12:49:44.147Z,32.34
2018-09-17T12:52:12.365Z,32.14
2018-09-17T12:54:40.598Z,31.55
2018-09-17T12:57:08.860Z,32.01
2018-09-17T12:59:37.032Z,31.09
2018-09-17T13:02:05.237Z,31.24
2018-09-17T13:04:33.461Z,31.69
2018-09-17T13:07:01.680Z,31.34
2018-09-17T13:09:29.902Z,31.83
2018-09-17T13:11:58.158Z,31.20
2018-09-17T13:14:26.373Z,31.14
2018-09-17T13:16:54.606Z,31.33
2018-09-17T13:19:22.840Z,32.34
2018-09-17T13:21:51.078Z,31.08
2018-09-17T13:24:19.302Z,31.84
2018-09-17T13:26:47.573Z,31.37
2018-09-17T13:29:15.784Z,29.78
2018-09-17T13:31:44.021Z,30.81
2018-09-17T13:34:12.245Z,30.15
2018-09-17T13:36:40.478Z,30.38
2018-09-17T13:39:08.710Z,29.98
2018-09-17T13:41:36.957Z,30.34
2018-09-17T13:44:05.257Z,30.42
2018-09-17T13:46:33.471Z,29.02
2018-09-17T13:49:01.761Z,30.06
2018-09-17T13:51:29.891Z,28.87
2018-09-17T13:53:58.163Z,28.78
2018-09-17T13:56:26.452Z,28.59
2018-09-17T13:58:54.667Z,29.78
2018-09-17T14:01:22.874Z,27.67
2018-09-17T14:03:51.103Z,26.64
2018-09-17T14:06:19.396Z,26.12
2018-09-17T14:08:47.612Z,27.22
2018-09-17T14:11:15.889Z,25.32
2018-09-17T14:13:44.105Z,26.48
2018-09-17T14:16:12.373Z,26.28
2018-09-17T14:18:41.703Z,26.45
2018-09-17T14:21:09.921Z,25.18
2018-09-17T14:23:38.256Z,25.85
2018-09-17T14:26:07.598Z,25.08
2018-09-17T14:28:35.752Z,24.82
2018-09-17T14:31:03.980Z,24.18
2018-09-17T14:33:38.201Z,25.59
2018-09-17T14:36:06.430Z,25.95
2018-09-17T14:38:34.669Z,24.72
2018-09-17T14:41:02.892Z,24.35
2018-09-17T14:43:31.131Z,25.52
2018-09-17T14:45:59.806Z,23.75
2018-09-17T14:48:27.937Z,25.08
2018-09-17T14:50:56.180Z,24.20
2018-09-17T14:53:24.449Z,24.49
2018-09-17T14:55:52.654Z,23.20
2018-09-17T14:58:21.025Z,23.11
2018-09-17T15:00:49.270Z,23.33
2018-09-17T15:03:17.485Z,23.22
2018-09-17T15:05:45.812Z,23.18
2018-09-17T15:08:14.127Z,21.90
2018-09-17T15:10:42.265Z,23.32
2018-09-17T15:13:10.531Z,22.20
2018-09-17T15:15:44.150Z,22.14
2018-09-17T15:18:13.844Z,22.02
2018-09-17T15:20:42.118Z,21.66
2018-09-17T15:23:10.558Z,22.17
2018-09-17T15:25:39.035Z,21.95
2018-09-17T15:28:07.630Z,21.64
2018-09-17T15:30:38.167Z,21.08
2018-09-17T15:33:06.605Z,21.12
2018-09-17T15:35:34.878Z,21.08
2018-09-17T15:38:03.164Z,22.07
2018-09-17T15:40:31.576Z,22.07
2018-09-17T15:42:59.759Z,22.33
2018-09-17T15:45:28.085Z,21.76
2018-09-17T15:47:56.305Z,23.42
2018-09-17T15:50:25.554Z,22.03
2018-09-17T15:52:53.835Z,22.94
2018-09-17T15:55:22.138Z,20.85
2018-09-17T15:57:50.560Z,21.23
2018-09-17T16:00:18.806Z,22.04
2018-09-17T16:02:47.187Z,21.84
2018-09-17T16:05:16.437Z,20.66
2018-09-17T16:07:44.735Z,21.86
2018-09-17T16:10:14.656Z,21.87
2018-09-17T16:12:44.096Z,23.09
2018-09-17T16:15:13.714Z,21.37
2018-09-17T16:17:42.645Z,22.70
2018-09-17T16:20:10.963Z,22.60
2018-09-17T16:22:40.248Z,21.94
2018-09-17T16:25:15.534Z,22.15
2018-09-17T16:27:45.009Z,23.32
2018-09-17T16:30:14.620Z,23.53
2018-09-17T16:32:42.821Z,23.98
2018-09-17T16:35:11.050Z,24.01
2018-09-17T16:37:39.445Z,24.91
2018-09-17T16:40:08.830Z,24.45
2018-09-17T16:42:37.186Z,24.23
2018-09-17T16:45:13.256Z,25.84
2018-09-17T16:47:41.830Z,25.37
2018-09-17T16:50:11.977Z,24.80
2018-09-17T16:52:40.219Z,24.82
2018-09-17T16:55:08.542Z,25.12
2018-09-17T16:57:36.791Z,25.28
2018-09-17T17:00:05.122Z,25.95
2018-09-17T17:02:33.329Z,25.10
2018-09-17T17:05:01.757Z,26.45
2018-09-17T17:07:29.953Z,26.97
2018-09-17T17:09:58.243Z,27.76
2018-09-17T17:12:27.025Z,27.94
2018-09-17T17:14:55.266Z,28.35
2018-09-17T17:17:23.506Z,28.78
2018-09-17T17:19:52.265Z,29.69
2018-09-17T17:22:21.217Z,28.73
2018-09-17T17:24:49.880Z,29.76
2018-09-17T17:27:19.656Z,29.92
2018-09-17T17:29:48.358Z,29.35
2018-09-17T17:32:16.928Z,29.52
2018-09-17T17:34:45.712Z,30.19
2018-09-17T17:37:14.445Z,30.67
2018-09-17T17:39:43.224Z,31.11
2018-09-17T17:42:11.410Z,30.79
2018-09-17T17:44:39.781Z,30.24
2018-09-17T17:47:07.994Z,30.82
2018-09-17T17:49:36.229Z,30.33
2018-09-17T17:52:04.558Z,31.43
2018-09-17T17:54:32.884Z,31.70
2018-09-17T17:57:00.994Z,31.74
2018-09-17T17:59:29.285Z,32.00
2018-09-17T18:01:57.531Z,32.10
2018-09-17T18:04:25.928Z,32.68
2018-09-17T18:06:54.027Z,32.76
2018-09-17T18:09:22.415Z,32.81
2018-09-17T18:11:52.590Z,33.89
2018-09-17T18:14:20.828Z,33.83
2018-09-17T18:16:49.070Z,33.59
2018-09-17T18:19:17.445Z,34.47
2018-09-17T18:21:45.807Z,34.77
2018-09-17T18:24:14.021Z,34.69
2018-09-17T18:26:42.400Z,35.22
2018-09-17T18:29:10.614Z,36.29
2018-09-17T18:31:38.833Z,36.16
2018-09-17T18:34:07.383Z,36.45
2018-09-17T18:36:35.667Z,36.61
2018-09-17T18:39:04.679Z,36.67
2018-09-17T18:41:33.022Z,37.65
2018-09-17T18:44:01.321Z,38.33
2018-09-17T18:46:29.611Z,37.98
2018-09-17T18:48:57.830Z,38.65
2018-09-17T18:51:26.095Z,39.08
2018-09-17T18:53:54.351Z,39.19
2018-09-17T18:56:22.796Z,39.64
2018-09-17T18:58:51.025Z,39.61
2018-09-17T19:01:19.249Z,39.86
2018-09-17T19:03:47.523Z,40.07
2018-09-17T19:06:15.748Z,39.84
2018-09-17T19:08:46.113Z,41.16
2018-09-17T19:11:14.357Z,40.80
2018-09-17T19:13:46.717Z,40.57
2018-09-17T19:16:14.977Z,41.90
2018-09-17T19:18:43.440Z,41.96
2018-09-17T19:21:11.884Z,41.93
2018-09-17T19:23:45.315Z,42.20
2018-09-17T19:26:13.592Z,42.73
2018-09-17T19:29:44.767Z,42.72
2018-09-17T19:32:13.096Z,43.36
2018-09-17T19:34:41.210Z,42.98
2018-09-17T19:37:15.610Z,42.31
2018-09-17T19:39:49.198Z,42.21
2018-09-17T19:42:17.468Z,43.11
2018-09-17T19:44:50.801Z,43.30
2018-09-17T19:47:19.015Z,43.08
2018-09-17T19:49:47.287Z,42.98
2018-09-17T19:52:19.285Z,43.63
2018-09-17T19:54:48.075Z,43.40
2018-09-17T19:57:21.526Z,45.31
2018-09-17T19:59:54.094Z,45.13
2018-09-17T20:02:22.677Z,45.40
2018-09-17T20:04:56.214Z,46.00
2018-09-17T20:07:25.701Z,45.51
2018-09-17T20:09:54.323Z,45.95
2018-09-17T20:12:23.810Z,46.35
2018-09-17T20:14:52.125Z,46.97
2018-09-17T20:17:20.615Z,46.76
2018-09-17T20:19:48.851Z,47.02
2018-09-17T20:22:19.077Z,48.08
2018-09-17T20:24:48.977Z,47.67
2018-09-17T20:27:18.059Z,47.49
2018-09-17T20:29:47.169Z,48.02
2018-09-17T20:32:16.807Z,48.09
2018-09-17T20:34:47.038Z,48.00
2018-09-17T20:37:16.682Z,48.15
2018-09-17T20:39:46.877Z,47.75
2018-09-17T20:42:15.994Z,48.81
2018-09-17T20:44:45.560Z,48.80
2018-09-17T20:47:14.725Z,48.82
2018-09-17T20:49:43.929Z,49.12
2018-09-17T20:52:13.129Z,49.29
2018-09-17T20:54:42.384Z,49.43
2018-09-17T20:57:11.727Z,48.66
2018-09-17T20:59:39.956Z,48.77
2018-09-17T21:02:08.199Z,48.44
2018-09-17T21:04:36.514Z,48.80
2018-09-17T21:07:04.906Z,49.33
2018-09-17T21:09:33.154Z,49.41
2018-09-17T21:12:01.600Z,49.31
2018-09-17T21:14:29.833Z,49.71
2018-09-17T21:16:58.043Z,49.11
2018-09-17T21:19:26.354Z,48.68
2018-09-17T21:21:54.543Z,49.83
2018-09-17T21:24:22.715Z,48.96
2018-09-17T21:26:50.940Z,49.89
2018-09-17T21:29:19.183Z,50.04
2018-09-17T21:31:47.455Z,50.91
2018-09-17T21:34:15.763Z,49.60
2018-09-17T21:36:44.013Z,49.68
2018-09-17T21:39:14.640Z,49.52
2018-09-17T21:41:42.866Z,49.89
2018-09-17T21:44:11.113Z,49.89
2018-09-17T21:46:39.491Z,51.49
2018-09-17T21:49:07.778Z,51.21
2018-09-17T21:51:36.026Z,50.73
2018-09-17T21:54:04.267Z,52.02
2018-09-17T21:56:32.498Z,51.52
2018-09-17T21:59:00.723Z,51.84
2018-09-17T22:01:29.009Z,52.50
2018-09-17T22:03:57.270Z,51.32
2018-09-17T22:06:25.517Z,52.56
2018-09-17T22:08:53.736Z,51.54
2018-09-17T22:11:22.090Z,52.41
2018-09-17T22:13:50.367Z,52.83
2018-09-17T22:16:18.742Z,53.06
2018-09-17T22:18:47.018Z,52.97
2018-09-17T22:21:15.240Z,53.74
2018-09-17T22:23:43.517Z,53.08
2018-09-17T22:26:11.756Z,53.93
2018-09-17T22:28:40.061Z,53.64
2018-09-17T22:31:08.379Z,53.97
2018-09-17T22:33:36.636Z,54.11
2018-09-17T22:36:04.914Z,53.82
2018-09-17T22:38:33.127Z,54.21
2018-09-17T22:41:01.373Z,55.06
2018-09-17T22:43:29.605Z,54.41
2018-09-17T22:45:57.874Z,55.34
2018-09-17T22:48:26.131Z,55.35
2018-09-17T22:50:54.362Z,55.87
2018-09-17T22:53:22.805Z,55.42
2018-09-17T22:55:51.054Z,55.94
2018-09-17T22:58:19.265Z,56.19
2018-09-17T23:00:47.503Z,56.22
2018-09-17T23:03:15.742Z,56.06
2018-09-17T23:05:43.954Z,55.98
2018-09-17T23:08:12.196Z,56.38
2018-09-17T23:10:40.403Z,56.43
2018-09-17T23:13:08.650Z,56.45
2018-09-17T23:15:36.866Z,56.92
2018-09-17T23:18:05.142Z,56.05
2018-09-17T23:20:33.341Z,56.57
2018-09-17T23:23:01.632Z,57.01
2018-09-17T23:25:29.869Z,56.94
2018-09-17T23:27:58.083Z,56.77
2018-09-17T23:30:26.305Z,57.34
2018-09-17T23:32:54.510Z,56.96
2018-09-17T23:35:22.721Z,56.97
2018-09-17T23:37:50.943Z,56.91
2018-09-17T23:40:19.185Z,58.31
2018-09-17T23:42:47.393Z,57.81
2018-09-17T23:45:15.686Z,58.43
2018-09-17T23:47:43.917Z,59.27
2018-09-17T23:50:12.130Z,59.79
2018-09-17T23:52:40.361Z,59.28
2018-09-17T23:55:08.581Z,59.46
2018-09-17T23:57:36.827Z,60.02
